createdAt,value
2022-11-10T00:02:18.971Z,101114.34
2022-11-10T00:05:04.584Z,101116.25
2022-11-10T00:07:49.751Z,101117.75
2022-11-10T00:10:56.953Z,101127.38
2022-11-10T00:14:00.655Z,101124.63
2022-11-10T00:17:01.060Z,101119.19
2022-11-10T00:19:46.058Z,101128.53
2022-11-10T00:22:31.371Z,101128.22
2022-11-10T00:25:16.546Z,101134.06
2022-11-10T00:28:01.614Z,101140.53
2022-11-10T00:30:47.114Z,101128.69
2022-11-10T00:33:34.622Z,101134.06
2022-11-10T00:36:19.886Z,101137.03
2022-11-10T00:39:05.769Z,101137.84
2022-11-10T00:41:50.831Z,101138.31
2022-11-10T00:44:36.060Z,101138.84
2022-11-10T00:47:21.213Z,101148.78
2022-11-10T00:50:06.928Z,101143.88
2022-11-10T00:52:52.042Z,101148.69
2022-11-10T00:55:40.820Z,101155.59
2022-11-10T00:58:26.109Z,101163.94
2022-11-10T01:01:12.854Z,101169.78
2022-11-10T01:03:57.903Z,101177.28
2022-11-10T01:06:43.139Z,101182.31
2022-11-10T01:09:28.296Z,101190.13
2022-11-10T01:12:14.466Z,101190.13
2022-11-10T01:14:59.321Z,101204.63
2022-11-10T01:17:44.605Z,101205.09
2022-11-10T01:20:30.095Z,101221.22
2022-11-10T01:23:15.299Z,101222.00
2022-11-10T01:26:06.149Z,101226.56
2022-11-10T01:28:51.736Z,101232.44
2022-11-10T01:31:36.889Z,101236.69
2022-11-10T01:34:22.201Z,101237.16
2022-11-10T01:37:07.399Z,101236.00
2022-11-10T01:39:52.772Z,101240.34
2022-11-10T01:42:45.864Z,101235.78
2022-11-10T01:45:48.998Z,101240.34
2022-11-10T01:48:57.473Z,101236.50
2022-11-10T01:51:50.236Z,101235.38
2022-11-10T01:54:43.122Z,101241.81
2022-11-10T01:57:28.563Z,101253.00
2022-11-10T02:00:14.446Z,101257.25
2022-11-10T02:03:28.026Z,101254.09
2022-11-10T02:06:15.149Z,101253.50
2022-11-10T02:09:00.262Z,101254.09
2022-11-10T02:11:46.741Z,101256.19
2022-11-10T02:14:32.292Z,101253.75
2022-11-10T02:17:17.390Z,101247.56
2022-11-10T02:20:06.432Z,101252.94
2022-11-10T02:22:51.562Z,101263.69
2022-11-10T02:25:37.614Z,101259.34
2022-11-10T02:28:23.141Z,101263.69
2022-11-10T02:31:09.624Z,101272.75
2022-11-10T02:33:55.000Z,101274.06
2022-11-10T02:36:40.177Z,101271.63
2022-11-10T02:39:25.485Z,101284.47
2022-11-10T02:42:10.658Z,101293.47
2022-11-10T02:44:56.892Z,101284.84
2022-11-10T02:47:41.827Z,101280.56
2022-11-10T02:50:27.126Z,101285.22
2022-11-10T02:53:12.684Z,101291.56
2022-11-10T02:55:57.596Z,101287.72
2022-11-10T02:58:42.707Z,101298.34
2022-11-10T03:01:28.110Z,101307.13
2022-11-10T03:04:13.451Z,101306.31
2022-11-10T03:06:58.887Z,101311.69
2022-11-10T03:09:44.265Z,101303.06
2022-11-10T03:12:29.650Z,101304.22
2022-11-10T03:15:14.612Z,101300.38
2022-11-10T03:18:03.798Z,101306.19
2022-11-10T03:20:49.814Z,101314.97
2022-11-10T03:23:35.904Z,101307.06
2022-11-10T03:26:22.376Z,101314.97
2022-11-10T03:29:07.846Z,101321.72
2022-11-10T03:31:53.161Z,101327.53
2022-11-10T03:34:38.488Z,101338.75
2022-11-10T03:37:23.749Z,101335.03
2022-11-10T03:40:09.688Z,101336.66
2022-11-10T03:42:54.967Z,101343.63
2022-11-10T03:45:40.173Z,101343.16
2022-11-10T03:48:25.568Z,101352.81
2022-11-10T03:51:10.794Z,101359.84
2022-11-10T03:53:56.037Z,101361.25
2022-11-10T03:56:41.293Z,101368.50
2022-11-10T03:59:26.617Z,101365.19
2022-11-10T04:02:12.139Z,101373.09
2022-11-10T04:05:15.984Z,101373.69
2022-11-10T04:08:20.898Z,101380.69
2022-11-10T04:11:06.431Z,101386.75
2022-11-10T04:14:10.110Z,101396.09
2022-11-10T04:16:55.683Z,101396.53
2022-11-10T04:19:40.720Z,101402.97
2022-11-10T04:22:44.431Z,101398.06
2022-11-10T04:25:29.477Z,101408.66
2022-11-10T04:28:14.882Z,101415.06
2022-11-10T04:31:00.149Z,101421.47
2022-11-10T04:33:46.196Z,101422.66
2022-11-10T04:36:34.665Z,101424.63
2022-11-10T04:39:19.749Z,101421.25
2022-11-10T04:42:05.509Z,101427.66
2022-11-10T04:44:50.886Z,101426.84
2022-11-10T04:47:35.962Z,101437.81
2022-11-10T04:50:21.129Z,101427.09
2022-11-10T04:53:06.299Z,101430.22
2022-11-10T04:55:52.119Z,101436.63
2022-11-10T04:58:37.236Z,101447.44
2022-11-10T05:01:26.326Z,101444.19
2022-11-10T05:04:11.927Z,101438.00
2022-11-10T05:06:57.243Z,101430.22
2022-11-10T05:09:42.501Z,101429.97
2022-11-10T05:12:27.823Z,101439.66
2022-11-10T05:15:13.268Z,101443.38
2022-11-10T05:17:59.458Z,101454.56
2022-11-10T05:20:44.394Z,101443.03
2022-11-10T05:23:38.548Z,101443.84
2022-11-10T05:26:24.239Z,101454.78
2022-11-10T05:29:09.467Z,101459.91
2022-11-10T05:31:54.950Z,101465.28
2022-11-10T05:34:40.384Z,101478.19
2022-11-10T05:37:25.588Z,101489.97
2022-11-10T05:40:11.431Z,101491.59
2022-11-10T05:42:56.967Z,101491.59
2022-11-10T05:45:42.824Z,101505.00
2022-11-10T05:48:27.945Z,101510.59
2022-11-10T05:51:13.267Z,101532.84
2022-11-10T05:53:58.810Z,101526.31
2022-11-10T05:56:44.130Z,101539.13
2022-11-10T05:59:29.355Z,101541.56
2022-11-10T06:02:14.493Z,101545.38
2022-11-10T06:04:59.742Z,101554.44
2022-11-10T06:07:44.980Z,101553.41
2022-11-10T06:10:30.643Z,101573.78
2022-11-10T06:13:15.748Z,101579.75
2022-11-10T06:16:01.071Z,101575.06
2022-11-10T06:18:46.241Z,101579.84
2022-11-10T06:21:31.845Z,101576.34
2022-11-10T06:24:16.918Z,101579.63
2022-11-10T06:27:02.567Z,101574.69
2022-11-10T06:29:47.389Z,101584.81
2022-11-10T06:32:34.349Z,101599.88
2022-11-10T06:35:20.537Z,101614.28
2022-11-10T06:38:09.331Z,101611.47
2022-11-10T06:40:54.085Z,101629.19
2022-11-10T06:43:39.349Z,101627.16
2022-11-10T06:46:24.644Z,101635.88
2022-11-10T06:49:10.001Z,101639.63
2022-11-10T06:51:55.590Z,101647.19
2022-11-10T06:54:40.719Z,101655.00
2022-11-10T06:57:26.054Z,101664.44
2022-11-10T07:00:12.246Z,101666.69
2022-11-10T07:03:08.620Z,101669.13
2022-11-10T07:05:54.102Z,101671.59
2022-11-10T07:08:39.178Z,101683.50
2022-11-10T07:11:24.401Z,101685.13
2022-11-10T07:14:09.975Z,101695.25
2022-11-10T07:16:55.167Z,101693.16
2022-11-10T07:19:40.729Z,101702.38
2022-11-10T07:22:26.138Z,101699.72
2022-11-10T07:25:11.616Z,101701.41
2022-11-10T07:28:00.723Z,101706.25
2022-11-10T07:30:45.899Z,101697.78
2022-11-10T07:33:31.606Z,101701.06
2022-11-10T07:36:16.902Z,101712.19
2022-11-10T07:39:02.600Z,101715.78
2022-11-10T07:41:52.297Z,101715.66
2022-11-10T07:44:38.402Z,101729.94
2022-11-10T07:47:24.333Z,101721.59
2022-11-10T07:50:10.744Z,101736.91
2022-11-10T07:53:04.880Z,101743.16
2022-11-10T07:55:50.348Z,101744.81
2022-11-10T07:58:35.702Z,101753.47
2022-11-10T08:01:22.204Z,101750.47
2022-11-10T08:04:07.501Z,101761.94
2022-11-10T08:06:54.476Z,101763.13
2022-11-10T08:09:39.943Z,101770.13
2022-11-10T08:12:29.781Z,101769.16
2022-11-10T08:15:15.675Z,101777.56
2022-11-10T08:18:07.072Z,101786.38
2022-11-10T08:20:54.767Z,101782.50
2022-11-10T08:23:40.276Z,101786.50
2022-11-10T08:26:26.532Z,101784.31
2022-11-10T08:29:13.491Z,101783.72
2022-11-10T08:31:58.835Z,101786.56
2022-11-10T08:34:44.493Z,101795.50
2022-11-10T08:37:29.773Z,101797.50
2022-11-10T08:40:15.729Z,101805.25
2022-11-10T08:43:02.752Z,101811.31
2022-11-10T08:45:48.152Z,101800.28
2022-11-10T08:48:34.022Z,101803.69
2022-11-10T08:51:19.474Z,101811.88
2022-11-10T08:54:05.128Z,101812.22
2022-11-10T08:56:50.506Z,101816.31
2022-11-10T08:59:35.682Z,101818.09
2022-11-10T09:02:20.953Z,101815.66
2022-11-10T09:05:06.924Z,101818.94
2022-11-10T09:07:52.198Z,101827.69
2022-11-10T09:10:40.341Z,101825.75
2022-11-10T09:13:29.781Z,101830.28
2022-11-10T09:16:16.300Z,101827.25
2022-11-10T09:19:01.698Z,101844.44
2022-11-10T09:21:47.041Z,101853.06
2022-11-10T09:24:32.216Z,101858.03
2022-11-10T09:27:17.517Z,101857.81
2022-11-10T09:30:06.808Z,101870.06
2022-11-10T09:32:56.690Z,101876.84
2022-11-10T09:35:42.919Z,101871.97
2022-11-10T09:38:28.404Z,101868.44
2022-11-10T09:41:15.047Z,101866.44
2022-11-10T09:44:09.319Z,101877.09
2022-11-10T09:47:12.438Z,101874.38
2022-11-10T09:50:02.205Z,101879.31
2022-11-10T09:52:50.393Z,101878.84
2022-11-10T09:55:59.582Z,101880.81
2022-11-10T09:58:46.441Z,101873.31
2022-11-10T10:01:40.384Z,101876.00
2022-11-10T10:04:52.055Z,101878.31
2022-11-10T10:07:45.181Z,101882.41
2022-11-10T10:10:44.958Z,101876.22
2022-11-10T10:13:48.389Z,101875.25
2022-11-10T10:16:56.016Z,101884.59
2022-11-10T10:19:46.999Z,101887.06
2022-11-10T10:22:47.429Z,101881.03
2022-11-10T10:25:33.171Z,101883.25
2022-11-10T10:28:37.667Z,101884.28
2022-11-10T10:31:28.654Z,101891.59
2022-11-10T10:34:22.114Z,101885.69
2022-11-10T10:37:27.324Z,101890.94
2022-11-10T10:40:20.345Z,101885.78
2022-11-10T10:43:05.757Z,101883.34
2022-11-10T10:46:10.249Z,101879.75
2022-11-10T10:49:28.649Z,101883.34
2022-11-10T10:52:17.954Z,101886.78
2022-11-10T10:55:08.152Z,101887.72
2022-11-10T10:57:59.434Z,101881.50
2022-11-10T11:00:46.952Z,101870.41
2022-11-10T11:03:40.654Z,101862.56
2022-11-10T11:06:28.669Z,101856.19
2022-11-10T11:09:28.111Z,101856.59
2022-11-10T11:12:22.076Z,101844.41
2022-11-10T11:15:26.489Z,101835.25
2022-11-10T11:18:15.239Z,101828.81
2022-11-10T11:21:15.804Z,101829.41
2022-11-10T11:24:20.212Z,101834.88
2022-11-10T11:27:23.197Z,101837.94
2022-11-10T11:30:12.580Z,101835.16
2022-11-10T11:33:02.471Z,101838.91
2022-11-10T11:36:17.414Z,101833.13
2022-11-10T11:39:26.767Z,101830.88
2022-11-10T11:42:14.914Z,101835.91
2022-11-10T11:45:12.273Z,101833.72
2022-11-10T11:48:19.797Z,101842.06
2022-11-10T11:51:05.885Z,101839.31
2022-11-10T11:53:57.231Z,101839.47
2022-11-10T11:56:49.770Z,101852.63
2022-11-10T11:59:41.023Z,101849.38
2022-11-10T12:02:52.447Z,101854.94
2022-11-10T12:06:16.159Z,101856.41
2022-11-10T12:09:16.157Z,101858.06
2022-11-10T12:12:15.061Z,101851.25
2022-11-10T12:15:29.030Z,101852.75
2022-11-10T12:18:38.182Z,101844.34
2022-11-10T12:21:28.917Z,101850.91
2022-11-10T12:25:00.246Z,101854.25
2022-11-10T12:28:16.249Z,101850.63
2022-11-10T12:31:06.937Z,101844.41
2022-11-10T12:34:05.933Z,101855.47
2022-11-10T12:36:53.069Z,101851.81
2022-11-10T12:39:56.054Z,101848.00
2022-11-10T12:42:43.770Z,101842.75
2022-11-10T12:45:45.248Z,101855.50
2022-11-10T12:48:42.394Z,101854.41
2022-11-10T12:51:42.353Z,101863.75
2022-11-10T12:54:28.913Z,101866.91
2022-11-10T12:57:18.913Z,101875.53
2022-11-10T13:00:28.103Z,101873.22
2022-11-10T13:03:38.372Z,101881.38
2022-11-10T13:06:29.091Z,101877.06
2022-11-10T13:09:31.608Z,101883.31
2022-11-10T13:12:22.687Z,101880.88
2022-11-10T13:15:36.543Z,101885.72
2022-11-10T13:18:32.852Z,101887.88
2022-11-10T13:21:18.173Z,101899.78
2022-11-10T13:24:03.487Z,101894.38
2022-11-10T13:26:53.112Z,101888.41
2022-11-10T13:29:47.249Z,101892.16
2022-11-10T13:32:36.342Z,101889.41
2022-11-10T13:35:28.054Z,101892.06
2022-11-10T13:38:31.845Z,101894.78
2022-11-10T13:41:16.919Z,101895.56
2022-11-10T13:44:03.369Z,101890.16
2022-11-10T13:47:09.821Z,101896.59
2022-11-10T13:49:54.634Z,101894.63
2022-11-10T13:52:39.358Z,101906.00
2022-11-10T13:55:37.049Z,101903.09
2022-11-10T13:58:28.758Z,101903.91
2022-11-10T14:01:17.138Z,101911.53
2022-11-10T14:04:07.091Z,101906.00
2022-11-10T14:06:55.978Z,101914.69
2022-11-10T14:09:45.453Z,101915.22
2022-11-10T14:12:39.081Z,101912.84
2022-11-10T14:15:38.819Z,101912.53
2022-11-10T14:18:28.866Z,101908.16
2022-11-10T14:21:22.230Z,101922.22
2022-11-10T14:24:16.114Z,101925.44
2022-11-10T14:27:08.320Z,101928.06
2022-11-10T14:30:21.917Z,101918.25
2022-11-10T14:33:11.448Z,101921.94
2022-11-10T14:36:01.397Z,101925.66
2022-11-10T14:38:47.079Z,101931.78
2022-11-10T14:41:32.724Z,101928.81
2022-11-10T14:44:24.346Z,101935.25
2022-11-10T14:47:34.220Z,101928.72
2022-11-10T14:50:19.688Z,101937.78
2022-11-10T14:53:16.875Z,101931.25
2022-11-10T14:56:06.044Z,101921.50
2022-11-10T14:58:52.318Z,101943.75
2022-11-10T15:01:40.715Z,101944.69
2022-11-10T15:04:29.857Z,101946.69
2022-11-10T15:07:16.670Z,101955.00
2022-11-10T15:10:07.947Z,101948.97
2022-11-10T15:13:17.875Z,101952.69
2022-11-10T15:16:27.947Z,101956.38
2022-11-10T15:19:29.689Z,101964.34
2022-11-10T15:22:34.584Z,101979.09
2022-11-10T15:25:22.611Z,101973.63
2022-11-10T15:28:14.145Z,101978.78
2022-11-10T15:31:05.450Z,101979.69
2022-11-10T15:33:54.569Z,101972.09
2022-11-10T15:36:40.005Z,101974.22
2022-11-10T15:39:27.237Z,101968.66
2022-11-10T15:42:17.497Z,101964.72
2022-11-10T15:45:03.192Z,101972.75
2022-11-10T15:47:48.362Z,101973.22
2022-11-10T15:50:33.859Z,101969.13
2022-11-10T15:53:38.783Z,101974.22
2022-11-10T15:56:24.849Z,101975.19
2022-11-10T15:59:10.665Z,101978.34
2022-11-10T16:01:56.312Z,101981.47
2022-11-10T16:04:42.432Z,101988.97
2022-11-10T16:07:27.769Z,101992.97
2022-11-10T16:10:13.193Z,101992.63
2022-11-10T16:12:58.528Z,101993.13
2022-11-10T16:15:45.321Z,101989.88
2022-11-10T16:18:31.369Z,101994.09
2022-11-10T16:21:19.958Z,102000.47
2022-11-10T16:24:05.669Z,102002.22
2022-11-10T16:26:51.319Z,102005.19
2022-11-10T16:29:37.613Z,102006.47
2022-11-10T16:32:22.829Z,102002.38
2022-11-10T16:35:13.631Z,102005.00
2022-11-10T16:37:58.647Z,102006.53
2022-11-10T16:40:44.049Z,102010.75
2022-11-10T16:43:31.367Z,102015.81
2022-11-10T16:46:21.612Z,102024.13
2022-11-10T16:49:21.228Z,102021.91
2022-11-10T16:52:14.751Z,102018.63
2022-11-10T16:55:00.003Z,102027.44
2022-11-10T16:57:45.240Z,102032.47
2022-11-10T17:00:30.603Z,102034.59
2022-11-10T17:03:46.536Z,102034.13
2022-11-10T17:06:33.414Z,102035.88
2022-11-10T17:09:23.498Z,102042.31
2022-11-10T17:12:16.737Z,102056.03
2022-11-10T17:15:01.841Z,102057.09
2022-11-10T17:17:50.858Z,102056.03
2022-11-10T17:20:39.162Z,102054.16
2022-11-10T17:23:26.485Z,102062.47
2022-11-10T17:26:14.427Z,102058.16
2022-11-10T17:28:59.508Z,102048.06
2022-11-10T17:31:45.456Z,102060.13
2022-11-10T17:34:31.276Z,102058.16
2022-11-10T17:37:17.608Z,102073.72
2022-11-10T17:40:15.836Z,102079.56
2022-11-10T17:43:01.107Z,102079.44
2022-11-10T17:45:46.393Z,102076.38
2022-11-10T17:48:31.670Z,102083.91
2022-11-10T17:51:24.144Z,102079.19
2022-11-10T17:54:15.662Z,102079.31
2022-11-10T17:57:00.584Z,102086.34
2022-11-10T17:59:45.843Z,102087.84
2022-11-10T18:02:31.028Z,102086.91
2022-11-10T18:05:18.232Z,102079.53
2022-11-10T18:08:04.179Z,102087.72
2022-11-10T18:10:51.402Z,102085.72
2022-11-10T18:13:37.915Z,102089.53
2022-11-10T18:16:23.027Z,102092.56
2022-11-10T18:19:10.212Z,102090.34
2022-11-10T18:21:55.542Z,102089.75
2022-11-10T18:24:42.511Z,102096.03
2022-11-10T18:27:28.325Z,102106.66
2022-11-10T18:30:16.999Z,102103.38
2022-11-10T18:33:05.102Z,102100.34
2022-11-10T18:35:50.738Z,102095.88
2022-11-10T18:38:36.189Z,102091.19
2022-11-10T18:41:40.021Z,102099.69
2022-11-10T18:44:25.278Z,102098.50
2022-11-10T18:47:14.566Z,102098.38
2022-11-10T18:49:59.700Z,102103.59
2022-11-10T18:52:45.572Z,102108.59
2022-11-10T18:55:31.497Z,102099.94
2022-11-10T18:58:17.149Z,102110.88
2022-11-10T19:01:10.338Z,102111.47
2022-11-10T19:03:57.485Z,102115.19
2022-11-10T19:06:44.942Z,102118.94
2022-11-10T19:09:30.217Z,102117.28
2022-11-10T19:12:15.975Z,102111.78
2022-11-10T19:15:01.475Z,102119.72
2022-11-10T19:17:46.475Z,102123.34
2022-11-10T19:20:31.488Z,102125.06
2022-11-10T19:23:18.153Z,102125.97
2022-11-10T19:26:22.557Z,102125.56
2022-11-10T19:29:08.668Z,102130.22
2022-11-10T19:31:53.863Z,102135.69
2022-11-10T19:34:39.274Z,102148.56
2022-11-10T19:37:24.726Z,102153.19
2022-11-10T19:40:10.903Z,102150.91
2022-11-10T19:42:55.884Z,102154.00
2022-11-10T19:45:42.228Z,102154.44
2022-11-10T19:48:27.616Z,102156.53
2022-11-10T19:51:16.145Z,102162.69
2022-11-10T19:54:02.883Z,102172.38
2022-11-10T19:56:51.414Z,102189.13
2022-11-10T19:59:36.483Z,102185.91
2022-11-10T20:02:21.862Z,102188.81
2022-11-10T20:05:13.482Z,102188.63
2022-11-10T20:08:13.702Z,102200.44
2022-11-10T20:11:10.845Z,102217.41
2022-11-10T20:14:00.390Z,102214.91
2022-11-10T20:16:46.057Z,102202.09
2022-11-10T20:19:32.941Z,102210.16
2022-11-10T20:22:19.445Z,102211.16
2022-11-10T20:25:05.258Z,102214.06
2022-11-10T20:27:50.575Z,102203.78
2022-11-10T20:30:41.511Z,102205.66
2022-11-10T20:33:27.338Z,102205.84
2022-11-10T20:36:20.340Z,102195.94
2022-11-10T20:39:06.440Z,102188.94
2022-11-10T20:41:52.599Z,102195.94
2022-11-10T20:44:37.896Z,102191.03
2022-11-10T20:47:23.774Z,102190.41
2022-11-10T20:50:14.442Z,102198.47
2022-11-10T20:53:01.720Z,102199.31
2022-11-10T20:55:54.260Z,102195.41
2022-11-10T20:58:40.460Z,102189.00
2022-11-10T21:01:25.540Z,102193.13
2022-11-10T21:04:11.078Z,102194.38
2022-11-10T21:15:04.043Z,102197.69
2022-11-10T21:17:48.968Z,102199.78
2022-11-10T21:20:35.437Z,102197.31
2022-11-10T21:23:21.541Z,102196.09
2022-11-10T21:26:10.644Z,102196.94
2022-11-10T21:28:57.092Z,102200.63
2022-11-10T21:31:42.787Z,102201.69
2022-11-10T21:34:27.792Z,102201.88
2022-11-10T21:37:13.378Z,102209.72
2022-11-10T21:39:58.361Z,102210.53
2022-11-10T21:42:43.727Z,102206.44
2022-11-10T21:45:29.428Z,102204.78
2022-11-10T21:48:14.688Z,102196.13
2022-11-10T21:51:01.480Z,102199.25
2022-11-10T21:53:47.226Z,102191.22
2022-11-10T21:56:32.303Z,102199.03
2022-11-10T21:59:19.180Z,102188.31
2022-11-10T22:02:04.491Z,102196.19
2022-11-10T22:04:49.676Z,102200.94
2022-11-10T22:07:37.774Z,102190.63
2022-11-10T22:10:41.611Z,102189.19
2022-11-10T22:13:45.726Z,102188.78
2022-11-10T22:17:09.726Z,102183.44
2022-11-10T22:19:55.984Z,102186.94
2022-11-10T22:22:46.222Z,102183.44
2022-11-10T22:25:32.082Z,102193.16
2022-11-10T22:28:19.930Z,102189.63
2022-11-10T22:31:07.546Z,102189.63
2022-11-10T22:33:57.395Z,102202.44
2022-11-10T22:36:43.521Z,102204.50
2022-11-10T22:39:59.643Z,102204.91
2022-11-10T22:43:10.125Z,102204.91
2022-11-10T22:45:55.621Z,102211.31
2022-11-10T22:48:44.402Z,102218.50
2022-11-10T22:51:40.421Z,102206.94
2022-11-10T22:54:37.568Z,102211.69
2022-11-10T22:57:42.326Z,102213.13
2022-11-10T23:00:29.960Z,102204.50
2022-11-10T23:03:17.897Z,102203.50
2022-11-10T23:06:07.964Z,102202.88
2022-11-10T23:08:57.130Z,102202.88
2022-11-10T23:11:45.886Z,102204.53
2022-11-10T23:14:37.143Z,102204.97
2022-11-10T23:17:34.554Z,102196.09
2022-11-10T23:20:20.368Z,102194.66
2022-11-10T23:23:10.013Z,102199.19
2022-11-10T23:26:17.301Z,102201.25
2022-11-10T23:29:07.146Z,102205.38
2022-11-10T23:31:59.012Z,102202.09
2022-11-10T23:34:46.173Z,102201.69
2022-11-10T23:37:34.960Z,102205.41
2022-11-10T23:40:24.256Z,102211.56
2022-11-10T23:43:10.535Z,102204.16
2022-11-10T23:46:07.027Z,102207.66
2022-11-10T23:48:54.538Z,102209.94
2022-11-10T23:51:43.003Z,102211.59
2022-11-10T23:54:29.188Z,102218.56
2022-11-10T23:57:24.311Z,102225.59
